sensor_id;sensor_type;location;lat;lon;timestamp;P1;durP1;ratioP1;P2;durP2;ratioP2
42194;SDS011;27863;49.440;11.102;2023-04-25T00:00:58;4.27;;;3.53;;
42194;SDS011;27863;49.440;11.102;2023-04-25T00:03:59;3.47;;;3.17;;
42194;SDS011;27863;49.440;11.102;2023-04-25T00:07:01;3.40;;;3.10;;
42194;SDS011;27863;49.440;11.102;2023-04-25T00:10:02;3.90;;;3.47;;
42194;SDS011;27863;49.440;11.102;2023-04-25T00:13:03;3.13;;;2.83;;
42194;SDS011;27863;49.440;11.102;2023-04-25T00:16:03;3.40;;;3.10;;
42194;SDS011;27863;49.440;11.102;2023-04-25T00:19:04;3.80;;;2.90;;
42194;SDS011;27863;49.440;11.102;2023-04-25T00:22:05;3.20;;;3.00;;
42194;SDS011;27863;49.440;11.102;2023-04-25T00:25:05;3.07;;;2.77;;
42194;SDS011;27863;49.440;11.102;2023-04-25T00:28:06;3.00;;;2.77;;
42194;SDS011;27863;49.440;11.102;2023-04-25T00:31:07;3.73;;;3.30;;
42194;SDS011;27863;49.440;11.102;2023-04-25T00:34:09;3.07;;;2.87;;
42194;SDS011;27863;49.440;11.102;2023-04-25T00:37:10;3.43;;;3.13;;
42194;SDS011;27863;49.440;11.102;2023-04-25T00:40:10;3.70;;;3.20;;
42194;SDS011;27863;49.440;11.102;2023-04-25T00:43:11;3.57;;;3.27;;
42194;SDS011;27863;49.440;11.102;2023-04-25T00:46:12;3.50;;;3.20;;
42194;SDS011;27863;49.440;11.102;2023-04-25T00:49:12;3.40;;;3.10;;
42194;SDS011;27863;49.440;11.102;2023-04-25T00:52:15;3.20;;;2.90;;
42194;SDS011;27863;49.440;11.102;2023-04-25T00:55:16;4.30;;;3.13;;
42194;SDS011;27863;49.440;11.102;2023-04-25T00:58:17;3.40;;;3.10;;
42194;SDS011;27863;49.440;11.102;2023-04-25T01:01:18;3.00;;;2.80;;
42194;SDS011;27863;49.440;11.102;2023-04-25T01:04:18;2.90;;;2.70;;
42194;SDS011;27863;49.440;11.102;2023-04-25T01:07:19;3.40;;;3.10;;
42194;SDS011;27863;49.440;11.102;2023-04-25T01:10:21;2.93;;;2.73;;
42194;SDS011;27863;49.440;11.102;2023-04-25T01:13:21;3.40;;;3.10;;
42194;SDS011;27863;49.440;11.102;2023-04-25T01:16:24;6.20;;;3.47;;
42194;SDS011;27863;49.440;11.102;2023-04-25T01:19:25;2.90;;;2.70;;
42194;SDS011;27863;49.440;11.102;2023-04-25T01:22:25;3.07;;;2.83;;
42194;SDS011;27863;49.440;11.102;2023-04-25T01:25:26;3.43;;;3.13;;
42194;SDS011;27863;49.440;11.102;2023-04-25T01:28:27;3.63;;;2.90;;
42194;SDS011;27863;49.440;11.102;2023-04-25T01:31:28;3.60;;;3.10;;
42194;SDS011;27863;49.440;11.102;2023-04-25T01:34:30;3.23;;;2.93;;
42194;SDS011;27863;49.440;11.102;2023-04-25T01:37:31;3.73;;;3.27;;
42194;SDS011;27863;49.440;11.102;2023-04-25T01:40:33;3.77;;;3.20;;
42194;SDS011;27863;49.440;11.102;2023-04-25T01:43:34;3.33;;;3.13;;
42194;SDS011;27863;49.440;11.102;2023-04-25T01:46:35;2.80;;;2.60;;
42194;SDS011;27863;49.440;11.102;2023-04-25T01:49:36;3.20;;;2.90;;
42194;SDS011;27863;49.440;11.102;2023-04-25T01:52:36;3.40;;;3.10;;
42194;SDS011;27863;49.440;11.102;2023-04-25T01:55:37;3.90;;;3.60;;
42194;SDS011;27863;49.440;11.102;2023-04-25T01:58:42;3.00;;;2.70;;
42194;SDS011;27863;49.440;11.102;2023-04-25T02:02:05;3.60;;;3.30;;
42194;SDS011;27863;49.440;11.102;2023-04-25T02:05:07;5.43;;;3.03;;
42194;SDS011;27863;49.440;11.102;2023-04-25T02:08:11;3.00;;;2.70;;
42194;SDS011;27863;49.440;11.102;2023-04-25T02:11:11;3.70;;;2.87;;
42194;SDS011;27863;49.440;11.102;2023-04-25T02:14:18;3.50;;;3.20;;
42194;SDS011;27863;49.440;11.102;2023-04-25T02:17:24;3.20;;;2.90;;
42194;SDS011;27863;49.440;11.102;2023-04-25T02:20:26;3.80;;;3.20;;
42194;SDS011;27863;49.440;11.102;2023-04-25T02:23:29;2.70;;;2.50;;
42194;SDS011;27863;49.440;11.102;2023-04-25T02:26:30;3.57;;;3.27;;
42194;SDS011;27863;49.440;11.102;2023-04-25T02:29:30;3.17;;;2.63;;
42194;SDS011;27863;49.440;11.102;2023-04-25T02:32:31;3.33;;;3.03;;
42194;SDS011;27863;49.440;11.102;2023-04-25T02:35:34;4.03;;;3.17;;
42194;SDS011;27863;49.440;11.102;2023-04-25T02:38:35;2.93;;;2.73;;
42194;SDS011;27863;49.440;11.102;2023-04-25T02:41:37;3.80;;;3.20;;
42194;SDS011;27863;49.440;11.102;2023-04-25T02:44:38;3.23;;;2.93;;
42194;SDS011;27863;49.440;11.102;2023-04-25T02:47:39;4.57;;;3.13;;
42194;SDS011;27863;49.440;11.102;2023-04-25T02:50:39;3.30;;;3.00;;
42194;SDS011;27863;49.440;11.102;2023-04-25T02:53:41;5.33;;;3.97;;
42194;SDS011;27863;49.440;11.102;2023-04-25T02:56:42;3.90;;;3.50;;
42194;SDS011;27863;49.440;11.102;2023-04-25T02:59:47;4.83;;;4.33;;
42194;SDS011;27863;49.440;11.102;2023-04-25T03:02:47;4.20;;;3.90;;
42194;SDS011;27863;49.440;11.102;2023-04-25T03:05:48;4.37;;;3.97;;
42194;SDS011;27863;49.440;11.102;2023-04-25T03:08:53;4.70;;;4.30;;
42194;SDS011;27863;49.440;11.102;2023-04-25T03:11:54;4.90;;;4.47;;
42194;SDS011;27863;49.440;11.102;2023-04-25T03:14:54;4.27;;;3.87;;
42194;SDS011;27863;49.440;11.102;2023-04-25T03:17:55;4.23;;;3.93;;
42194;SDS011;27863;49.440;11.102;2023-04-25T03:20:57;5.17;;;4.67;;
42194;SDS011;27863;49.440;11.102;2023-04-25T03:23:59;4.93;;;4.50;;
42194;SDS011;27863;49.440;11.102;2023-04-25T03:27:00;4.33;;;3.93;;
42194;SDS011;27863;49.440;11.102;2023-04-25T03:30:01;4.97;;;4.67;;
42194;SDS011;27863;49.440;11.102;2023-04-25T03:33:03;5.03;;;4.60;;
42194;SDS011;27863;49.440;11.102;2023-04-25T03:36:04;4.37;;;3.97;;
42194;SDS011;27863;49.440;11.102;2023-04-25T03:39:05;4.90;;;4.50;;
42194;SDS011;27863;49.440;11.102;2023-04-25T03:42:06;10.80;;;5.40;;
42194;SDS011;27863;49.440;11.102;2023-04-25T03:45:07;4.70;;;4.30;;
42194;SDS011;27863;49.440;11.102;2023-04-25T03:48:08;5.20;;;4.80;;
42194;SDS011;27863;49.440;11.102;2023-04-25T03:51:10;5.47;;;4.97;;
42194;SDS011;27863;49.440;11.102;2023-04-25T03:54:15;4.83;;;4.43;;
42194;SDS011;27863;49.440;11.102;2023-04-25T03:57:27;5.20;;;4.70;;
42194;SDS011;27863;49.440;11.102;2023-04-25T04:00:28;5.87;;;5.37;;
42194;SDS011;27863;49.440;11.102;2023-04-25T04:03:28;5.13;;;4.43;;
42194;SDS011;27863;49.440;11.102;2023-04-25T04:06:31;8.53;;;4.80;;
42194;SDS011;27863;49.440;11.102;2023-04-25T04:09:39;5.63;;;5.23;;
42194;SDS011;27863;49.440;11.102;2023-04-25T04:12:43;5.20;;;4.70;;
42194;SDS011;27863;49.440;11.102;2023-04-25T04:15:45;5.40;;;4.90;;
42194;SDS011;27863;49.440;11.102;2023-04-25T04:18:45;4.87;;;4.53;;
42194;SDS011;27863;49.440;11.102;2023-04-25T04:21:46;5.63;;;5.13;;
42194;SDS011;27863;49.440;11.102;2023-04-25T04:24:47;5.07;;;4.13;;
42194;SDS011;27863;49.440;11.102;2023-04-25T04:27:53;4.27;;;3.97;;
42194;SDS011;27863;49.440;11.102;2023-04-25T04:31:12;5.37;;;4.87;;
42194;SDS011;27863;49.440;11.102;2023-04-25T04:34:17;4.50;;;4.10;;
42194;SDS011;27863;49.440;11.102;2023-04-25T04:37:18;6.27;;;5.77;;
42194;SDS011;27863;49.440;11.102;2023-04-25T04:40:19;5.83;;;5.33;;
42194;SDS011;27863;49.440;11.102;2023-04-25T04:43:35;5.33;;;4.83;;
42194;SDS011;27863;49.440;11.102;2023-04-25T04:46:42;4.70;;;4.30;;
42194;SDS011;27863;49.440;11.102;2023-04-25T04:50:02;5.33;;;4.93;;
42194;SDS011;27863;49.440;11.102;2023-04-25T04:53:25;5.40;;;4.90;;
42194;SDS011;27863;49.440;11.102;2023-04-25T04:56:48;5.37;;;4.97;;
42194;SDS011;27863;49.440;11.102;2023-04-25T05:00:13;6.23;;;5.67;;
42194;SDS011;27863;49.440;11.102;2023-04-25T05:03:21;6.20;;;5.60;;
42194;SDS011;27863;49.440;11.102;2023-04-25T05:06:27;6.27;;;5.77;;
42194;SDS011;27863;49.440;11.102;2023-04-25T05:10:02;6.80;;;4.83;;
42194;SDS011;27863;49.440;11.102;2023-04-25T05:13:26;6.07;;;5.57;;
42194;SDS011;27863;49.440;11.102;2023-04-25T05:16:47;5.57;;;5.10;;
42194;SDS011;27863;49.440;11.102;2023-04-25T05:19:56;5.17;;;4.77;;
42194;SDS011;27863;49.440;11.102;2023-04-25T05:23:26;5.60;;;5.10;;
42194;SDS011;27863;49.440;11.102;2023-04-25T05:26:50;5.40;;;4.97;;
42194;SDS011;27863;49.440;11.102;2023-04-25T05:30:09;4.57;;;4.17;;
42194;SDS011;27863;49.440;11.102;2023-04-25T05:33:23;5.13;;;4.73;;
42194;SDS011;27863;49.440;11.102;2023-04-25T05:36:24;5.57;;;5.03;;
42194;SDS011;27863;49.440;11.102;2023-04-25T05:39:26;6.37;;;5.80;;
42194;SDS011;27863;49.440;11.102;2023-04-25T05:42:51;5.27;;;4.73;;
42194;SDS011;27863;49.440;11.102;2023-04-25T05:46:15;5.10;;;4.70;;
42194;SDS011;27863;49.440;11.102;2023-04-25T05:49:58;4.37;;;4.07;;
42194;SDS011;27863;49.440;11.102;2023-04-25T05:53:22;5.23;;;4.73;;
42194;SDS011;27863;49.440;11.102;2023-04-25T05:56:28;5.03;;;4.40;;
42194;SDS011;27863;49.440;11.102;2023-04-25T05:59:30;5.20;;;4.80;;
42194;SDS011;27863;49.440;11.102;2023-04-25T06:02:30;4.57;;;4.13;;
42194;SDS011;27863;49.440;11.102;2023-04-25T06:05:32;5.33;;;4.90;;
42194;SDS011;27863;49.440;11.102;2023-04-25T06:08:33;4.37;;;4.07;;
42194;SDS011;27863;49.440;11.102;2023-04-25T06:11:37;4.47;;;4.07;;
42194;SDS011;27863;49.440;11.102;2023-04-25T06:14:38;4.77;;;4.30;;
42194;SDS011;27863;49.440;11.102;2023-04-25T06:17:38;4.07;;;3.77;;
42194;SDS011;27863;49.440;11.102;2023-04-25T06:20:40;6.30;;;5.00;;
42194;SDS011;27863;49.440;11.102;2023-04-25T06:23:40;5.67;;;5.17;;
42194;SDS011;27863;49.440;11.102;2023-04-25T06:26:43;5.27;;;4.77;;
42194;SDS011;27863;49.440;11.102;2023-04-25T06:29:44;5.20;;;4.70;;
42194;SDS011;27863;49.440;11.102;2023-04-25T06:32:45;5.27;;;4.77;;
42194;SDS011;27863;49.440;11.102;2023-04-25T06:35:46;5.33;;;4.93;;
42194;SDS011;27863;49.440;11.102;2023-04-25T06:38:50;4.97;;;4.57;;
42194;SDS011;27863;49.440;11.102;2023-04-25T06:41:52;6.27;;;5.67;;
42194;SDS011;27863;49.440;11.102;2023-04-25T06:45:22;5.80;;;5.30;;
42194;SDS011;27863;49.440;11.102;2023-04-25T06:48:23;10.37;;;5.30;;
42194;SDS011;27863;49.440;11.102;2023-04-25T06:51:24;6.33;;;5.77;;
42194;SDS011;27863;49.440;11.102;2023-04-25T06:54:27;5.83;;;5.27;;
42194;SDS011;27863;49.440;11.102;2023-04-25T06:57:37;5.97;;;5.47;;
42194;SDS011;27863;49.440;11.102;2023-04-25T07:00:57;6.33;;;5.57;;
42194;SDS011;27863;49.440;11.102;2023-04-25T07:03:59;6.90;;;6.30;;
42194;SDS011;27863;49.440;11.102;2023-04-25T07:07:02;7.17;;;5.70;;
42194;SDS011;27863;49.440;11.102;2023-04-25T07:10:11;6.37;;;5.87;;
42194;SDS011;27863;49.440;11.102;2023-04-25T07:13:11;6.33;;;5.83;;
42194;SDS011;27863;49.440;11.102;2023-04-25T07:16:12;8.13;;;6.03;;
42194;SDS011;27863;49.440;11.102;2023-04-25T07:19:13;8.23;;;5.50;;
42194;SDS011;27863;49.440;11.102;2023-04-25T07:22:13;6.50;;;5.63;;
42194;SDS011;27863;49.440;11.102;2023-04-25T07:25:16;6.63;;;5.87;;
42194;SDS011;27863;49.440;11.102;2023-04-25T07:28:17;12.37;;;6.00;;
42194;SDS011;27863;49.440;11.102;2023-04-25T07:31:18;5.13;;;4.77;;
42194;SDS011;27863;49.440;11.102;2023-04-25T07:34:19;4.27;;;3.67;;
42194;SDS011;27863;49.440;11.102;2023-04-25T07:37:20;2.77;;;2.57;;
42194;SDS011;27863;49.440;11.102;2023-04-25T07:40:34;2.27;;;2.10;;
42194;SDS011;27863;49.440;11.102;2023-04-25T07:43:40;2.80;;;2.60;;
42194;SDS011;27863;49.440;11.102;2023-04-25T07:46:41;3.07;;;2.77;;
42194;SDS011;27863;49.440;11.102;2023-04-25T07:49:42;4.13;;;3.83;;
42194;SDS011;27863;49.440;11.102;2023-04-25T07:52:43;3.00;;;2.70;;
42194;SDS011;27863;49.440;11.102;2023-04-25T07:56:00;3.30;;;2.57;;
42194;SDS011;27863;49.440;11.102;2023-04-25T07:59:03;4.53;;;2.90;;
42194;SDS011;27863;49.440;11.102;2023-04-25T08:02:04;3.80;;;3.23;;
42194;SDS011;27863;49.440;11.102;2023-04-25T08:05:05;3.57;;;3.27;;
42194;SDS011;27863;49.440;11.102;2023-04-25T08:08:09;4.87;;;3.40;;
42194;SDS011;27863;49.440;11.102;2023-04-25T08:11:10;3.30;;;3.00;;
42194;SDS011;27863;49.440;11.102;2023-04-25T08:14:11;3.83;;;2.57;;
42194;SDS011;27863;49.440;11.102;2023-04-25T08:17:13;3.47;;;3.17;;
42194;SDS011;27863;49.440;11.102;2023-04-25T08:20:15;3.30;;;2.27;;
42194;SDS011;27863;49.440;11.102;2023-04-25T08:23:17;4.60;;;3.13;;
42194;SDS011;27863;49.440;11.102;2023-04-25T08:26:35;3.90;;;2.70;;
42194;SDS011;27863;49.440;11.102;2023-04-25T08:29:37;3.53;;;3.23;;
42194;SDS011;27863;49.440;11.102;2023-04-25T08:32:38;4.43;;;2.97;;
42194;SDS011;27863;49.440;11.102;2023-04-25T08:35:59;3.80;;;3.07;;
42194;SDS011;27863;49.440;11.102;2023-04-25T08:39:01;3.27;;;2.50;;
42194;SDS011;27863;49.440;11.102;2023-04-25T08:42:06;4.83;;;3.40;;
42194;SDS011;27863;49.440;11.102;2023-04-25T08:45:11;4.80;;;3.30;;
42194;SDS011;27863;49.440;11.102;2023-04-25T08:48:14;3.87;;;3.23;;
42194;SDS011;27863;49.440;11.102;2023-04-25T08:51:22;3.90;;;3.40;;
42194;SDS011;27863;49.440;11.102;2023-04-25T08:54:28;3.50;;;2.90;;
42194;SDS011;27863;49.440;11.102;2023-04-25T08:57:31;3.60;;;2.93;;
42194;SDS011;27863;49.440;11.102;2023-04-25T09:00:33;3.63;;;3.33;;
42194;SDS011;27863;49.440;11.102;2023-04-25T09:03:33;4.50;;;3.27;;
42194;SDS011;27863;49.440;11.102;2023-04-25T09:06:34;4.85;;;2.42;;
42194;SDS011;27863;49.440;11.102;2023-04-25T09:09:36;4.15;;;3.05;;
42194;SDS011;27863;49.440;11.102;2023-04-25T09:12:37;4.07;;;3.78;;
42194;SDS011;27863;49.440;11.102;2023-04-25T09:15:51;3.60;;;3.30;;
42194;SDS011;27863;49.440;11.102;2023-04-25T09:19:05;3.57;;;3.27;;
42194;SDS011;27863;49.440;11.102;2023-04-25T09:22:08;3.77;;;3.40;;
42194;SDS011;27863;49.440;11.102;2023-04-25T09:25:10;3.90;;;3.60;;
42194;SDS011;27863;49.440;11.102;2023-04-25T09:28:12;4.40;;;4.10;;
42194;SDS011;27863;49.440;11.102;2023-04-25T09:31:21;4.50;;;4.00;;
42194;SDS011;27863;49.440;11.102;2023-04-25T09:34:25;5.37;;;3.10;;
42194;SDS011;27863;49.440;11.102;2023-04-25T09:37:29;3.43;;;3.13;;
42194;SDS011;27863;49.440;11.102;2023-04-25T09:40:40;4.03;;;3.77;;
42194;SDS011;27863;49.440;11.102;2023-04-25T09:43:48;3.53;;;3.30;;
42194;SDS011;27863;49.440;11.102;2023-04-25T09:46:50;3.80;;;3.53;;
42194;SDS011;27863;49.440;11.102;2023-04-25T09:50:00;3.97;;;3.57;;
42194;SDS011;27863;49.440;11.102;2023-04-25T09:53:06;7.60;;;3.50;;
42194;SDS011;27863;49.440;11.102;2023-04-25T09:56:42;3.47;;;2.90;;
42194;SDS011;27863;49.440;11.102;2023-04-25T10:02:55;3.00;;;2.63;;
42194;SDS011;27863;49.440;11.102;2023-04-25T10:06:20;2.70;;;2.50;;
42194;SDS011;27863;49.440;11.102;2023-04-25T10:09:25;2.80;;;2.60;;
42194;SDS011;27863;49.440;11.102;2023-04-25T10:12:27;3.80;;;3.40;;
42194;SDS011;27863;49.440;11.102;2023-04-25T10:15:35;4.32;;;3.58;;
42194;SDS011;27863;49.440;11.102;2023-04-25T10:18:40;3.38;;;3.08;;
42194;SDS011;27863;49.440;11.102;2023-04-25T10:21:44;3.88;;;3.47;;
42194;SDS011;27863;49.440;11.102;2023-04-25T10:24:52;4.13;;;3.70;;
42194;SDS011;27863;49.440;11.102;2023-04-25T10:27:53;4.15;;;3.70;;
42194;SDS011;27863;49.440;11.102;2023-04-25T10:31:00;4.78;;;4.38;;
42194;SDS011;27863;49.440;11.102;2023-04-25T10:34:02;5.03;;;4.35;;
42194;SDS011;27863;49.440;11.102;2023-04-25T10:37:03;4.23;;;3.83;;
42194;SDS011;27863;49.440;11.102;2023-04-25T10:40:10;3.53;;;3.22;;
42194;SDS011;27863;49.440;11.102;2023-04-25T10:46:31;2.53;;;1.77;;
42194;SDS011;27863;49.440;11.102;2023-04-25T10:49:41;3.87;;;1.80;;
42194;SDS011;27863;49.440;11.102;2023-04-25T10:52:42;5.03;;;2.23;;
42194;SDS011;27863;49.440;11.102;2023-04-25T10:55:50;2.70;;;1.90;;
42194;SDS011;27863;49.440;11.102;2023-04-25T10:58:51;2.55;;;1.95;;
42194;SDS011;27863;49.440;11.102;2023-04-25T11:01:52;3.33;;;2.07;;
42194;SDS011;27863;49.440;11.102;2023-04-25T11:04:54;2.33;;;1.67;;
42194;SDS011;27863;49.440;11.102;2023-04-25T11:07:56;1.83;;;1.63;;
42194;SDS011;27863;49.440;11.102;2023-04-25T11:10:58;1.35;;;1.25;;
42194;SDS011;27863;49.440;11.102;2023-04-25T11:13:59;1.85;;;1.60;;
42194;SDS011;27863;49.440;11.102;2023-04-25T11:17:00;1.65;;;1.55;;
42194;SDS011;27863;49.440;11.102;2023-04-25T11:20:02;2.50;;;1.50;;
42194;SDS011;27863;49.440;11.102;2023-04-25T11:23:08;2.17;;;1.60;;
42194;SDS011;27863;49.440;11.102;2023-04-25T11:26:08;1.38;;;1.13;;
42194;SDS011;27863;49.440;11.102;2023-04-25T11:29:09;2.13;;;1.40;;
42194;SDS011;27863;49.440;11.102;2023-04-25T11:32:10;2.95;;;1.67;;
42194;SDS011;27863;49.440;11.102;2023-04-25T11:35:12;1.48;;;1.38;;
42194;SDS011;27863;49.440;11.102;2023-04-25T11:38:13;1.97;;;1.20;;
42194;SDS011;27863;49.440;11.102;2023-04-25T11:41:14;2.28;;;1.35;;
42194;SDS011;27863;49.440;11.102;2023-04-25T11:44:18;1.40;;;1.10;;
42194;SDS011;27863;49.440;11.102;2023-04-25T11:47:18;1.45;;;1.10;;
42194;SDS011;27863;49.440;11.102;2023-04-25T11:50:19;1.70;;;1.25;;
42194;SDS011;27863;49.440;11.102;2023-04-25T11:53:20;1.92;;;1.60;;
42194;SDS011;27863;49.440;11.102;2023-04-25T11:56:20;1.67;;;1.50;;
42194;SDS011;27863;49.440;11.102;2023-04-25T11:59:24;1.73;;;1.20;;
42194;SDS011;27863;49.440;11.102;2023-04-25T12:02:25;1.53;;;1.43;;
42194;SDS011;27863;49.440;11.102;2023-04-25T12:05:28;1.27;;;0.90;;
42194;SDS011;27863;49.440;11.102;2023-04-25T12:08:30;1.33;;;0.90;;
42194;SDS011;27863;49.440;11.102;2023-04-25T12:11:31;1.75;;;1.10;;
42194;SDS011;27863;49.440;11.102;2023-04-25T12:14:34;0.80;;;0.80;;
42194;SDS011;27863;49.440;11.102;2023-04-25T12:17:38;1.15;;;0.90;;
42194;SDS011;27863;49.440;11.102;2023-04-25T12:20:41;0.93;;;0.70;;
42194;SDS011;27863;49.440;11.102;2023-04-25T12:23:42;0.90;;;0.80;;
42194;SDS011;27863;49.440;11.102;2023-04-25T12:29:53;0.75;;;0.75;;
42194;SDS011;27863;49.440;11.102;2023-04-25T12:32:54;1.42;;;1.33;;
42194;SDS011;27863;49.440;11.102;2023-04-25T12:35:55;1.20;;;0.90;;
42194;SDS011;27863;49.440;11.102;2023-04-25T12:38:56;0.75;;;0.75;;
42194;SDS011;27863;49.440;11.102;2023-04-25T12:42:04;1.15;;;1.00;;
42194;SDS011;27863;49.440;11.102;2023-04-25T12:45:05;1.30;;;1.20;;
42194;SDS011;27863;49.440;11.102;2023-04-25T12:48:06;1.15;;;1.05;;
42194;SDS011;27863;49.440;11.102;2023-04-25T12:51:06;2.10;;;1.30;;
42194;SDS011;27863;49.440;11.102;2023-04-25T12:54:07;1.00;;;1.00;;
42194;SDS011;27863;49.440;11.102;2023-04-25T12:57:08;1.40;;;1.10;;
42194;SDS011;27863;49.440;11.102;2023-04-25T13:00:09;1.63;;;1.00;;
42194;SDS011;27863;49.440;11.102;2023-04-25T13:03:10;1.17;;;1.00;;
42194;SDS011;27863;49.440;11.102;2023-04-25T13:06:11;1.10;;;1.00;;
42194;SDS011;27863;49.440;11.102;2023-04-25T13:09:13;1.55;;;1.10;;
42194;SDS011;27863;49.440;11.102;2023-04-25T13:12:13;1.20;;;1.07;;
42194;SDS011;27863;49.440;11.102;2023-04-25T13:15:14;2.03;;;1.13;;
42194;SDS011;27863;49.440;11.102;2023-04-25T13:18:15;1.70;;;1.20;;
42194;SDS011;27863;49.440;11.102;2023-04-25T13:21:16;1.20;;;1.10;;
42194;SDS011;27863;49.440;11.102;2023-04-25T13:24:16;1.48;;;1.38;;
42194;SDS011;27863;49.440;11.102;2023-04-25T13:27:17;1.60;;;1.50;;
42194;SDS011;27863;49.440;11.102;2023-04-25T13:30:17;1.02;;;0.98;;
42194;SDS011;27863;49.440;11.102;2023-04-25T13:33:18;3.03;;;1.60;;
42194;SDS011;27863;49.440;11.102;2023-04-25T13:36:20;1.55;;;1.20;;
42194;SDS011;27863;49.440;11.102;2023-04-25T13:39:20;1.40;;;1.30;;
42194;SDS011;27863;49.440;11.102;2023-04-25T13:42:23;2.03;;;1.42;;
42194;SDS011;27863;49.440;11.102;2023-04-25T13:45:23;2.88;;;2.67;;
42194;SDS011;27863;49.440;11.102;2023-04-25T13:48:24;1.38;;;1.27;;
42194;SDS011;27863;49.440;11.102;2023-04-25T13:51:25;1.05;;;1.00;;
42194;SDS011;27863;49.440;11.102;2023-04-25T13:54:26;7.30;;;1.77;;
42194;SDS011;27863;49.440;11.102;2023-04-25T13:57:27;2.85;;;1.23;;
42194;SDS011;27863;49.440;11.102;2023-04-25T14:00:27;2.35;;;1.63;;
42194;SDS011;27863;49.440;11.102;2023-04-25T14:03:28;1.63;;;1.07;;
42194;SDS011;27863;49.440;11.102;2023-04-25T14:06:28;1.50;;;1.40;;
42194;SDS011;27863;49.440;11.102;2023-04-25T14:09:28;1.63;;;1.40;;
42194;SDS011;27863;49.440;11.102;2023-04-25T14:12:29;2.03;;;1.63;;
42194;SDS011;27863;49.440;11.102;2023-04-25T14:15:33;1.73;;;1.57;;
42194;SDS011;27863;49.440;11.102;2023-04-25T14:18:34;1.40;;;1.30;;
42194;SDS011;27863;49.440;11.102;2023-04-25T14:21:34;1.90;;;1.70;;
42194;SDS011;27863;49.440;11.102;2023-04-25T14:24:35;1.70;;;1.53;;
42194;SDS011;27863;49.440;11.102;2023-04-25T14:27:36;2.30;;;1.67;;
42194;SDS011;27863;49.440;11.102;2023-04-25T14:30:36;3.60;;;1.83;;
42194;SDS011;27863;49.440;11.102;2023-04-25T14:33:37;1.80;;;1.67;;
42194;SDS011;27863;49.440;11.102;2023-04-25T14:36:41;1.83;;;1.57;;
42194;SDS011;27863;49.440;11.102;2023-04-25T14:39:42;2.27;;;2.07;;
42194;SDS011;27863;49.440;11.102;2023-04-25T14:42:42;2.47;;;1.90;;
42194;SDS011;27863;49.440;11.102;2023-04-25T14:45:43;3.10;;;1.70;;
42194;SDS011;27863;49.440;11.102;2023-04-25T14:48:45;2.40;;;2.20;;
42194;SDS011;27863;49.440;11.102;2023-04-25T14:51:45;2.20;;;2.00;;
42194;SDS011;27863;49.440;11.102;2023-04-25T14:54:46;2.13;;;1.87;;
42194;SDS011;27863;49.440;11.102;2023-04-25T14:57:47;2.33;;;1.70;;
42194;SDS011;27863;49.440;11.102;2023-04-25T15:00:47;3.40;;;1.90;;
42194;SDS011;27863;49.440;11.102;2023-04-25T15:03:49;2.43;;;2.23;;
42194;SDS011;27863;49.440;11.102;2023-04-25T15:06:51;3.40;;;2.10;;
42194;SDS011;27863;49.440;11.102;2023-04-25T15:09:51;2.50;;;2.30;;
42194;SDS011;27863;49.440;11.102;2023-04-25T15:12:53;2.30;;;2.10;;
42194;SDS011;27863;49.440;11.102;2023-04-25T15:15:53;2.13;;;2.03;;
42194;SDS011;27863;49.440;11.102;2023-04-25T15:18:54;2.57;;;1.97;;
42194;SDS011;27863;49.440;11.102;2023-04-25T15:21:54;1.93;;;1.60;;
42194;SDS011;27863;49.440;11.102;2023-04-25T15:24:56;2.00;;;1.80;;
42194;SDS011;27863;49.440;11.102;2023-04-25T15:27:57;3.40;;;2.07;;
42194;SDS011;27863;49.440;11.102;2023-04-25T15:30:57;2.77;;;2.03;;
42194;SDS011;27863;49.440;11.102;2023-04-25T15:33:58;2.20;;;2.00;;
42194;SDS011;27863;49.440;11.102;2023-04-25T15:36:58;3.07;;;2.20;;
42194;SDS011;27863;49.440;11.102;2023-04-25T15:40:03;3.37;;;2.20;;
42194;SDS011;27863;49.440;11.102;2023-04-25T15:43:08;2.60;;;2.40;;
42194;SDS011;27863;49.440;11.102;2023-04-25T15:46:14;2.73;;;1.83;;
42194;SDS011;27863;49.440;11.102;2023-04-25T15:49:15;2.87;;;2.37;;
42194;SDS011;27863;49.440;11.102;2023-04-25T15:52:16;3.93;;;2.30;;
42194;SDS011;27863;49.440;11.102;2023-04-25T15:55:20;2.87;;;2.17;;
42194;SDS011;27863;49.440;11.102;2023-04-25T15:58:21;2.97;;;1.93;;
42194;SDS011;27863;49.440;11.102;2023-04-25T16:01:22;2.27;;;2.03;;
42194;SDS011;27863;49.440;11.102;2023-04-25T16:04:25;1.90;;;1.80;;
42194;SDS011;27863;49.440;11.102;2023-04-25T16:07:26;3.83;;;1.90;;
42194;SDS011;27863;49.440;11.102;2023-04-25T16:10:29;2.00;;;1.63;;
42194;SDS011;27863;49.440;11.102;2023-04-25T16:13:29;2.27;;;2.00;;
42194;SDS011;27863;49.440;11.102;2023-04-25T16:16:33;4.27;;;2.17;;
42194;SDS011;27863;49.440;11.102;2023-04-25T16:19:34;3.17;;;2.10;;
42194;SDS011;27863;49.440;11.102;2023-04-25T16:22:35;2.23;;;1.57;;
42194;SDS011;27863;49.440;11.102;2023-04-25T16:25:36;2.20;;;1.80;;
42194;SDS011;27863;49.440;11.102;2023-04-25T16:28:36;2.37;;;2.17;;
42194;SDS011;27863;49.440;11.102;2023-04-25T16:31:37;2.70;;;1.90;;
42194;SDS011;27863;49.440;11.102;2023-04-25T16:34:37;3.97;;;2.33;;
42194;SDS011;27863;49.440;11.102;2023-04-25T16:37:38;4.97;;;1.83;;
42194;SDS011;27863;49.440;11.102;2023-04-25T16:40:38;3.57;;;2.83;;
42194;SDS011;27863;49.440;11.102;2023-04-25T16:43:39;3.60;;;2.30;;
42194;SDS011;27863;49.440;11.102;2023-04-25T16:46:44;3.90;;;2.73;;
42194;SDS011;27863;49.440;11.102;2023-04-25T16:49:44;2.23;;;1.97;;
42194;SDS011;27863;49.440;11.102;2023-04-25T16:52:45;2.93;;;2.00;;
42194;SDS011;27863;49.440;11.102;2023-04-25T16:55:45;2.83;;;2.40;;
42194;SDS011;27863;49.440;11.102;2023-04-25T16:58:46;5.93;;;1.90;;
42194;SDS011;27863;49.440;11.102;2023-04-25T17:01:47;4.33;;;3.03;;
42194;SDS011;27863;49.440;11.102;2023-04-25T17:04:47;1.97;;;1.87;;
42194;SDS011;27863;49.440;11.102;2023-04-25T17:07:48;5.47;;;2.00;;
42194;SDS011;27863;49.440;11.102;2023-04-25T17:10:49;3.70;;;2.33;;
42194;SDS011;27863;49.440;11.102;2023-04-25T17:13:49;3.40;;;1.80;;
42194;SDS011;27863;49.440;11.102;2023-04-25T17:16:50;8.67;;;2.33;;
42194;SDS011;27863;49.440;11.102;2023-04-25T17:19:51;2.53;;;1.50;;
42194;SDS011;27863;49.440;11.102;2023-04-25T17:22:52;3.40;;;1.70;;
42194;SDS011;27863;49.440;11.102;2023-04-25T17:25:52;2.47;;;1.97;;
42194;SDS011;27863;49.440;11.102;2023-04-25T17:28:53;2.80;;;2.10;;
42194;SDS011;27863;49.440;11.102;2023-04-25T17:31:53;2.10;;;1.90;;
42194;SDS011;27863;49.440;11.102;2023-04-25T17:34:57;5.70;;;1.70;;
42194;SDS011;27863;49.440;11.102;2023-04-25T17:37:59;2.07;;;1.90;;
42194;SDS011;27863;49.440;11.102;2023-04-25T17:41:00;5.73;;;2.20;;
42194;SDS011;27863;49.440;11.102;2023-04-25T17:44:00;3.80;;;1.90;;
42194;SDS011;27863;49.440;11.102;2023-04-25T17:47:01;2.50;;;1.83;;
42194;SDS011;27863;49.440;11.102;2023-04-25T17:50:02;3.07;;;1.87;;
42194;SDS011;27863;49.440;11.102;2023-04-25T17:53:03;4.23;;;2.27;;
42194;SDS011;27863;49.440;11.102;2023-04-25T17:56:04;3.67;;;2.30;;
42194;SDS011;27863;49.440;11.102;2023-04-25T17:59:06;2.47;;;2.03;;
42194;SDS011;27863;49.440;11.102;2023-04-25T18:02:07;2.83;;;2.47;;
42194;SDS011;27863;49.440;11.102;2023-04-25T18:05:08;3.10;;;2.30;;
42194;SDS011;27863;49.440;11.102;2023-04-25T18:08:09;4.07;;;2.10;;
42194;SDS011;27863;49.440;11.102;2023-04-25T18:11:10;2.73;;;2.47;;
42194;SDS011;27863;49.440;11.102;2023-04-25T18:14:11;5.47;;;3.33;;
42194;SDS011;27863;49.440;11.102;2023-04-25T18:17:17;3.83;;;2.43;;